sensor_id;sensor_type;location;lat;lon;timestamp;P1;durP1;ratioP1;P2;durP2;ratioP2
22468;SDS011;11401;50.792;4.352;2023-08-12T00:00:46;4.00;;;3.40;;
22468;SDS011;11401;50.792;4.352;2023-08-12T00:03:13;5.38;;;3.90;;
22468;SDS011;11401;50.792;4.352;2023-08-12T00:05:40;5.75;;;3.80;;
22468;SDS011;11401;50.792;4.352;2023-08-12T00:08:09;6.03;;;3.75;;
22468;SDS011;11401;50.792;4.352;2023-08-12T00:10:36;5.70;;;3.90;;
22468;SDS011;11401;50.792;4.352;2023-08-12T00:13:03;5.53;;;3.65;;
22468;SDS011;11401;50.792;4.352;2023-08-12T00:15:30;5.57;;;3.65;;
22468;SDS011;11401;50.792;4.352;2023-08-12T00:17:57;4.72;;;3.80;;
22468;SDS011;11401;50.792;4.352;2023-08-12T00:20:24;4.55;;;3.72;;
22468;SDS011;11401;50.792;4.352;2023-08-12T00:22:51;9.43;;;3.95;;
22468;SDS011;11401;50.792;4.352;2023-08-12T00:25:18;8.30;;;4.03;;
22468;SDS011;11401;50.792;4.352;2023-08-12T00:27:45;3.50;;;3.15;;
22468;SDS011;11401;50.792;4.352;2023-08-12T00:30:12;7.70;;;3.50;;
22468;SDS011;11401;50.792;4.352;2023-08-12T00:32:40;8.48;;;4.57;;
22468;SDS011;11401;50.792;4.352;2023-08-12T00:35:07;6.72;;;4.07;;
22468;SDS011;11401;50.792;4.352;2023-08-12T00:37:34;5.88;;;3.80;;
22468;SDS011;11401;50.792;4.352;2023-08-12T00:40:01;4.78;;;3.83;;
22468;SDS011;11401;50.792;4.352;2023-08-12T00:42:30;8.60;;;4.15;;
22468;SDS011;11401;50.792;4.352;2023-08-12T00:44:58;8.40;;;4.47;;
22468;SDS011;11401;50.792;4.352;2023-08-12T00:47:27;8.38;;;3.78;;
22468;SDS011;11401;50.792;4.352;2023-08-12T00:49:56;6.10;;;4.28;;
22468;SDS011;11401;50.792;4.352;2023-08-12T00:52:24;4.40;;;4.00;;
22468;SDS011;11401;50.792;4.352;2023-08-12T00:54:52;8.65;;;4.35;;
22468;SDS011;11401;50.792;4.352;2023-08-12T00:57:19;6.15;;;4.20;;
22468;SDS011;11401;50.792;4.352;2023-08-12T00:59:47;7.70;;;4.07;;
22468;SDS011;11401;50.792;4.352;2023-08-12T01:02:16;8.65;;;4.18;;
22468;SDS011;11401;50.792;4.352;2023-08-12T01:04:43;5.60;;;3.95;;
22468;SDS011;11401;50.792;4.352;2023-08-12T01:07:10;4.95;;;4.35;;
22468;SDS011;11401;50.792;4.352;2023-08-12T01:09:38;6.22;;;3.95;;
22468;SDS011;11401;50.792;4.352;2023-08-12T01:17:08;6.25;;;4.25;;
22468;SDS011;11401;50.792;4.352;2023-08-12T01:19:39;5.70;;;4.18;;
22468;SDS011;11401;50.792;4.352;2023-08-12T01:22:11;7.07;;;4.20;;
22468;SDS011;11401;50.792;4.352;2023-08-12T01:27:07;7.45;;;4.47;;
22468;SDS011;11401;50.792;4.352;2023-08-12T01:29:38;8.60;;;4.25;;
22468;SDS011;11401;50.792;4.352;2023-08-12T01:32:24;7.72;;;3.90;;
22468;SDS011;11401;50.792;4.352;2023-08-12T01:37:38;7.90;;;3.97;;
22468;SDS011;11401;50.792;4.352;2023-08-12T01:40:06;8.20;;;3.78;;
22468;SDS011;11401;50.792;4.352;2023-08-12T01:42:36;7.38;;;5.03;;
22468;SDS011;11401;50.792;4.352;2023-08-12T01:45:05;5.95;;;4.13;;
22468;SDS011;11401;50.792;4.352;2023-08-12T01:47:32;6.10;;;4.50;;
22468;SDS011;11401;50.792;4.352;2023-08-12T01:50:00;7.00;;;3.92;;
22468;SDS011;11401;50.792;4.352;2023-08-12T01:52:27;8.52;;;4.35;;
22468;SDS011;11401;50.792;4.352;2023-08-12T01:54:55;6.05;;;4.40;;
22468;SDS011;11401;50.792;4.352;2023-08-12T01:57:22;5.65;;;3.90;;
22468;SDS011;11401;50.792;4.352;2023-08-12T01:59:50;6.25;;;4.38;;
22468;SDS011;11401;50.792;4.352;2023-08-12T02:02:18;5.93;;;4.22;;
22468;SDS011;11401;50.792;4.352;2023-08-12T02:04:45;6.82;;;4.25;;
22468;SDS011;11401;50.792;4.352;2023-08-12T02:07:12;10.05;;;4.55;;
22468;SDS011;11401;50.792;4.352;2023-08-12T02:09:39;5.75;;;4.35;;
22468;SDS011;11401;50.792;4.352;2023-08-12T02:12:06;6.55;;;4.15;;
22468;SDS011;11401;50.792;4.352;2023-08-12T02:14:34;7.20;;;4.30;;
22468;SDS011;11401;50.792;4.352;2023-08-12T02:17:03;4.72;;;3.78;;
22468;SDS011;11401;50.792;4.352;2023-08-12T02:19:34;6.75;;;4.00;;
22468;SDS011;11401;50.792;4.352;2023-08-12T02:22:04;6.82;;;5.03;;
22468;SDS011;11401;50.792;4.352;2023-08-12T02:24:31;7.43;;;4.13;;
22468;SDS011;11401;50.792;4.352;2023-08-12T02:26:58;8.20;;;4.95;;
22468;SDS011;11401;50.792;4.352;2023-08-12T02:29:25;9.63;;;5.20;;
22468;SDS011;11401;50.792;4.352;2023-08-12T02:31:52;8.00;;;4.47;;
22468;SDS011;11401;50.792;4.352;2023-08-12T02:34:19;5.25;;;4.00;;
22468;SDS011;11401;50.792;4.352;2023-08-12T02:36:46;5.60;;;4.35;;
22468;SDS011;11401;50.792;4.352;2023-08-12T02:39:13;8.93;;;5.10;;
22468;SDS011;11401;50.792;4.352;2023-08-12T02:41:40;6.20;;;4.40;;
22468;SDS011;11401;50.792;4.352;2023-08-12T02:44:07;7.95;;;4.55;;
22468;SDS011;11401;50.792;4.352;2023-08-12T02:46:34;8.27;;;4.32;;
22468;SDS011;11401;50.792;4.352;2023-08-12T02:49:01;8.60;;;5.22;;
22468;SDS011;11401;50.792;4.352;2023-08-12T02:51:28;5.38;;;4.50;;
22468;SDS011;11401;50.792;4.352;2023-08-12T02:53:55;7.43;;;4.40;;
22468;SDS011;11401;50.792;4.352;2023-08-12T02:56:22;5.05;;;4.25;;
22468;SDS011;11401;50.792;4.352;2023-08-12T02:58:49;9.00;;;5.05;;
22468;SDS011;11401;50.792;4.352;2023-08-12T03:01:16;4.57;;;4.03;;
22468;SDS011;11401;50.792;4.352;2023-08-12T03:03:44;5.80;;;4.30;;
22468;SDS011;11401;50.792;4.352;2023-08-12T03:06:11;5.35;;;4.47;;
22468;SDS011;11401;50.792;4.352;2023-08-12T03:08:38;4.63;;;3.90;;
22468;SDS011;11401;50.792;4.352;2023-08-12T03:11:07;6.68;;;4.10;;
22468;SDS011;11401;50.792;4.352;2023-08-12T03:13:34;6.55;;;4.22;;
22468;SDS011;11401;50.792;4.352;2023-08-12T03:16:01;13.07;;;5.47;;
22468;SDS011;11401;50.792;4.352;2023-08-12T03:18:29;6.70;;;4.57;;
22468;SDS011;11401;50.792;4.352;2023-08-12T03:20:56;8.15;;;5.03;;
22468;SDS011;11401;50.792;4.352;2023-08-12T03:23:24;7.72;;;4.75;;
22468;SDS011;11401;50.792;4.352;2023-08-12T03:25:51;7.28;;;4.53;;
22468;SDS011;11401;50.792;4.352;2023-08-12T03:28:19;5.80;;;4.47;;
22468;SDS011;11401;50.792;4.352;2023-08-12T03:30:52;6.05;;;5.00;;
22468;SDS011;11401;50.792;4.352;2023-08-12T03:33:22;4.65;;;4.22;;
22468;SDS011;11401;50.792;4.352;2023-08-12T03:35:50;6.97;;;4.78;;
22468;SDS011;11401;50.792;4.352;2023-08-12T03:38:18;6.85;;;4.82;;
22468;SDS011;11401;50.792;4.352;2023-08-12T03:40:45;6.45;;;4.30;;
22468;SDS011;11401;50.792;4.352;2023-08-12T03:43:15;4.57;;;3.67;;
22468;SDS011;11401;50.792;4.352;2023-08-12T03:45:43;5.00;;;4.25;;
22468;SDS011;11401;50.792;4.352;2023-08-12T03:48:13;6.07;;;4.22;;
22468;SDS011;11401;50.792;4.352;2023-08-12T03:50:41;4.28;;;3.88;;
22468;SDS011;11401;50.792;4.352;2023-08-12T03:53:08;5.10;;;3.92;;
22468;SDS011;11401;50.792;4.352;2023-08-12T03:55:37;4.85;;;3.85;;
22468;SDS011;11401;50.792;4.352;2023-08-12T03:58:06;7.38;;;4.30;;
22468;SDS011;11401;50.792;4.352;2023-08-12T04:00:33;5.97;;;4.25;;
22468;SDS011;11401;50.792;4.352;2023-08-12T04:03:02;5.05;;;4.00;;
22468;SDS011;11401;50.792;4.352;2023-08-12T04:05:29;6.95;;;4.30;;
22468;SDS011;11401;50.792;4.352;2023-08-12T04:07:56;10.27;;;5.25;;
22468;SDS011;11401;50.792;4.352;2023-08-12T04:10:23;9.57;;;4.63;;
22468;SDS011;11401;50.792;4.352;2023-08-12T04:12:52;7.85;;;4.20;;
22468;SDS011;11401;50.792;4.352;2023-08-12T04:15:19;7.03;;;4.15;;
22468;SDS011;11401;50.792;4.352;2023-08-12T04:17:47;5.53;;;4.00;;
22468;SDS011;11401;50.792;4.352;2023-08-12T04:20:14;5.82;;;3.67;;
22468;SDS011;11401;50.792;4.352;2023-08-12T04:22:41;6.38;;;4.03;;
22468;SDS011;11401;50.792;4.352;2023-08-12T04:25:08;7.80;;;4.30;;
22468;SDS011;11401;50.792;4.352;2023-08-12T04:27:35;7.07;;;4.05;;
22468;SDS011;11401;50.792;4.352;2023-08-12T04:30:03;6.35;;;4.13;;
22468;SDS011;11401;50.792;4.352;2023-08-12T04:32:31;6.97;;;4.10;;
22468;SDS011;11401;50.792;4.352;2023-08-12T04:34:59;4.25;;;3.65;;
22468;SDS011;11401;50.792;4.352;2023-08-12T04:37:26;6.22;;;4.32;;
22468;SDS011;11401;50.792;4.352;2023-08-12T04:39:54;7.50;;;3.20;;
22468;SDS011;11401;50.792;4.352;2023-08-12T04:42:21;4.57;;;3.30;;
22468;SDS011;11401;50.792;4.352;2023-08-12T04:44:49;8.82;;;3.90;;
22468;SDS011;11401;50.792;4.352;2023-08-12T04:47:16;4.18;;;3.17;;
22468;SDS011;11401;50.792;4.352;2023-08-12T04:49:43;7.70;;;4.03;;
22468;SDS011;11401;50.792;4.352;2023-08-12T04:52:11;6.47;;;3.30;;
22468;SDS011;11401;50.792;4.352;2023-08-12T04:54:38;5.47;;;3.47;;
22468;SDS011;11401;50.792;4.352;2023-08-12T04:57:05;5.13;;;3.35;;
22468;SDS011;11401;50.792;4.352;2023-08-12T04:59:32;4.97;;;3.58;;
22468;SDS011;11401;50.792;4.352;2023-08-12T05:01:59;4.82;;;3.75;;
22468;SDS011;11401;50.792;4.352;2023-08-12T05:04:32;6.18;;;3.20;;
22468;SDS011;11401;50.792;4.352;2023-08-12T05:06:59;5.10;;;3.08;;
22468;SDS011;11401;50.792;4.352;2023-08-12T05:09:27;3.65;;;2.88;;
22468;SDS011;11401;50.792;4.352;2023-08-12T05:11:54;4.78;;;3.58;;
22468;SDS011;11401;50.792;4.352;2023-08-12T05:14:21;5.55;;;3.78;;
22468;SDS011;11401;50.792;4.352;2023-08-12T05:16:48;6.72;;;3.72;;
22468;SDS011;11401;50.792;4.352;2023-08-12T05:19:17;5.32;;;3.65;;
22468;SDS011;11401;50.792;4.352;2023-08-12T05:21:44;4.30;;;3.90;;
22468;SDS011;11401;50.792;4.352;2023-08-12T05:24:11;4.95;;;4.05;;
22468;SDS011;11401;50.792;4.352;2023-08-12T05:26:38;6.03;;;4.18;;
22468;SDS011;11401;50.792;4.352;2023-08-12T05:29:05;5.40;;;3.67;;
22468;SDS011;11401;50.792;4.352;2023-08-12T05:31:32;4.63;;;4.22;;
22468;SDS011;11401;50.792;4.352;2023-08-12T05:33:59;5.10;;;4.60;;
22468;SDS011;11401;50.792;4.352;2023-08-12T05:36:26;6.38;;;4.25;;
22468;SDS011;11401;50.792;4.352;2023-08-12T05:38:53;4.38;;;3.97;;
22468;SDS011;11401;50.792;4.352;2023-08-12T05:41:21;5.85;;;4.47;;
22468;SDS011;11401;50.792;4.352;2023-08-12T05:43:48;5.13;;;4.60;;
22468;SDS011;11401;50.792;4.352;2023-08-12T05:46:15;5.18;;;4.32;;
22468;SDS011;11401;50.792;4.352;2023-08-12T05:48:42;4.65;;;4.25;;
22468;SDS011;11401;50.792;4.352;2023-08-12T05:51:09;4.50;;;4.10;;
22468;SDS011;11401;50.792;4.352;2023-08-12T05:53:37;6.07;;;4.60;;
22468;SDS011;11401;50.792;4.352;2023-08-12T05:56:04;7.05;;;5.22;;
22468;SDS011;11401;50.792;4.352;2023-08-12T05:58:31;5.53;;;5.03;;
22468;SDS011;11401;50.792;4.352;2023-08-12T06:00:58;7.53;;;5.45;;
22468;SDS011;11401;50.792;4.352;2023-08-12T06:03:25;6.43;;;5.38;;
22468;SDS011;11401;50.792;4.352;2023-08-12T06:05:52;5.65;;;4.82;;
22468;SDS011;11401;50.792;4.352;2023-08-12T06:08:19;5.35;;;4.80;;
22468;SDS011;11401;50.792;4.352;2023-08-12T06:10:46;5.55;;;5.00;;
22468;SDS011;11401;50.792;4.352;2023-08-12T06:13:14;6.10;;;5.50;;
22468;SDS011;11401;50.792;4.352;2023-08-12T06:15:41;5.40;;;4.88;;
22468;SDS011;11401;50.792;4.352;2023-08-12T06:18:08;5.78;;;5.28;;
22468;SDS011;11401;50.792;4.352;2023-08-12T06:20:35;5.15;;;4.75;;
22468;SDS011;11401;50.792;4.352;2023-08-12T06:23:02;5.53;;;5.00;;
22468;SDS011;11401;50.792;4.352;2023-08-12T06:25:29;5.00;;;4.60;;
22468;SDS011;11401;50.792;4.352;2023-08-12T06:27:56;4.55;;;4.15;;
22468;SDS011;11401;50.792;4.352;2023-08-12T06:30:24;4.82;;;4.43;;
22468;SDS011;11401;50.792;4.352;2023-08-12T06:32:52;5.97;;;4.88;;
22468;SDS011;11401;50.792;4.352;2023-08-12T06:35:19;4.78;;;4.35;;
22468;SDS011;11401;50.792;4.352;2023-08-12T06:37:46;4.78;;;4.38;;
22468;SDS011;11401;50.792;4.352;2023-08-12T06:40:13;4.68;;;3.60;;
22468;SDS011;11401;50.792;4.352;2023-08-12T06:42:40;4.93;;;4.53;;
22468;SDS011;11401;50.792;4.352;2023-08-12T06:45:08;5.28;;;3.85;;
22468;SDS011;11401;50.792;4.352;2023-08-12T06:47:35;5.13;;;4.63;;
22468;SDS011;11401;50.792;4.352;2023-08-12T06:50:02;4.25;;;3.95;;
22468;SDS011;11401;50.792;4.352;2023-08-12T06:52:29;3.72;;;3.42;;
22468;SDS011;11401;50.792;4.352;2023-08-12T06:54:57;4.20;;;3.90;;
22468;SDS011;11401;50.792;4.352;2023-08-12T06:57:23;4.28;;;3.97;;
22468;SDS011;11401;50.792;4.352;2023-08-12T06:59:51;4.85;;;2.80;;
22468;SDS011;11401;50.792;4.352;2023-08-12T07:02:18;2.92;;;2.72;;
22468;SDS011;11401;50.792;4.352;2023-08-12T07:04:45;3.35;;;3.15;;
22468;SDS011;11401;50.792;4.352;2023-08-12T07:07:12;3.85;;;3.55;;
22468;SDS011;11401;50.792;4.352;2023-08-12T07:09:39;3.63;;;2.80;;
22468;SDS011;11401;50.792;4.352;2023-08-12T07:12:06;5.10;;;2.95;;
22468;SDS011;11401;50.792;4.352;2023-08-12T07:14:33;2.75;;;2.55;;
22468;SDS011;11401;50.792;4.352;2023-08-12T07:17:00;3.30;;;3.00;;
22468;SDS011;11401;50.792;4.352;2023-08-12T07:19:27;3.35;;;3.00;;
22468;SDS011;11401;50.792;4.352;2023-08-12T07:21:54;3.00;;;2.75;;
22468;SDS011;11401;50.792;4.352;2023-08-12T07:24:22;3.10;;;2.22;;
22468;SDS011;11401;50.792;4.352;2023-08-12T07:26:49;2.22;;;2.13;;
22468;SDS011;11401;50.792;4.352;2023-08-12T07:29:16;3.67;;;2.28;;
22468;SDS011;11401;50.792;4.352;2023-08-12T07:31:43;2.45;;;2.30;;
22468;SDS011;11401;50.792;4.352;2023-08-12T07:34:10;3.00;;;2.00;;
22468;SDS011;11401;50.792;4.352;2023-08-12T07:36:39;2.55;;;2.10;;
22468;SDS011;11401;50.792;4.352;2023-08-12T07:39:07;2.70;;;2.50;;
22468;SDS011;11401;50.792;4.352;2023-08-12T07:41:34;3.90;;;2.35;;
22468;SDS011;11401;50.792;4.352;2023-08-12T07:44:01;2.47;;;2.17;;
22468;SDS011;11401;50.792;4.352;2023-08-12T07:46:29;4.38;;;2.63;;
22468;SDS011;11401;50.792;4.352;2023-08-12T07:48:56;4.25;;;2.72;;
22468;SDS011;11401;50.792;4.352;2023-08-12T07:51:24;3.22;;;2.97;;
22468;SDS011;11401;50.792;4.352;2023-08-12T07:53:51;4.30;;;3.75;;
22468;SDS011;11401;50.792;4.352;2023-08-12T07:56:18;6.13;;;4.30;;
22468;SDS011;11401;50.792;4.352;2023-08-12T07:58:45;4.80;;;4.45;;
22468;SDS011;11401;50.792;4.352;2023-08-12T08:01:12;4.35;;;4.05;;
22468;SDS011;11401;50.792;4.352;2023-08-12T08:03:40;4.68;;;4.38;;
22468;SDS011;11401;50.792;4.352;2023-08-12T08:06:07;4.65;;;3.80;;
22468;SDS011;11401;50.792;4.352;2023-08-12T08:08:34;4.15;;;3.85;;
22468;SDS011;11401;50.792;4.352;2023-08-12T08:11:01;4.03;;;3.25;;
22468;SDS011;11401;50.792;4.352;2023-08-12T08:13:28;3.80;;;3.60;;
22468;SDS011;11401;50.792;4.352;2023-08-12T08:15:55;3.35;;;3.05;;
22468;SDS011;11401;50.792;4.352;2023-08-12T08:18:22;3.40;;;3.10;;
22468;SDS011;11401;50.792;4.352;2023-08-12T08:20:50;2.75;;;2.58;;
22468;SDS011;11401;50.792;4.352;2023-08-12T08:23:17;2.58;;;2.38;;
22468;SDS011;11401;50.792;4.352;2023-08-12T08:25:44;3.35;;;3.05;;
22468;SDS011;11401;50.792;4.352;2023-08-12T08:28:12;2.90;;;2.67;;
22468;SDS011;11401;50.792;4.352;2023-08-12T08:30:39;2.40;;;2.30;;
22468;SDS011;11401;50.792;4.352;2023-08-12T08:33:06;2.80;;;2.55;;
22468;SDS011;11401;50.792;4.352;2023-08-12T08:35:34;2.67;;;2.47;;
22468;SDS011;11401;50.792;4.352;2023-08-12T08:38:01;3.83;;;2.55;;
22468;SDS011;11401;50.792;4.352;2023-08-12T08:40:29;3.95;;;2.63;;
22468;SDS011;11401;50.792;4.352;2023-08-12T08:42:56;2.30;;;2.20;;
22468;SDS011;11401;50.792;4.352;2023-08-12T08:45:30;2.50;;;2.30;;
22468;SDS011;11401;50.792;4.352;2023-08-12T08:48:02;2.63;;;2.30;;
22468;SDS011;11401;50.792;4.352;2023-08-12T08:50:30;1.88;;;1.77;;
22468;SDS011;11401;50.792;4.352;2023-08-12T08:52:58;1.92;;;1.65;;
22468;SDS011;11401;50.792;4.352;2023-08-12T08:55:27;3.55;;;1.55;;
22468;SDS011;11401;50.792;4.352;2023-08-12T08:57:55;2.38;;;1.77;;
22468;SDS011;11401;50.792;4.352;2023-08-12T09:00:26;2.08;;;1.55;;
22468;SDS011;11401;50.792;4.352;2023-08-12T09:02:54;2.63;;;1.73;;
22468;SDS011;11401;50.792;4.352;2023-08-12T09:05:23;6.63;;;1.88;;
22468;SDS011;11401;50.792;4.352;2023-08-12T09:07:53;2.45;;;1.83;;
22468;SDS011;11401;50.792;4.352;2023-08-12T09:10:21;1.60;;;1.48;;
22468;SDS011;11401;50.792;4.352;2023-08-12T09:12:55;1.83;;;1.40;;
22468;SDS011;11401;50.792;4.352;2023-08-12T09:15:23;5.10;;;1.60;;
22468;SDS011;11401;50.792;4.352;2023-08-12T09:17:51;2.05;;;1.70;;
22468;SDS011;11401;50.792;4.352;2023-08-12T09:20:18;4.20;;;1.98;;
22468;SDS011;11401;50.792;4.352;2023-08-12T09:22:46;6.15;;;1.98;;
22468;SDS011;11401;50.792;4.352;2023-08-12T09:25:23;3.10;;;1.98;;
22468;SDS011;11401;50.792;4.352;2023-08-12T09:27:50;7.30;;;2.03;;
22468;SDS011;11401;50.792;4.352;2023-08-12T09:30:17;4.60;;;2.00;;
22468;SDS011;11401;50.792;4.352;2023-08-12T09:33:23;3.80;;;1.77;;
22468;SDS011;11401;50.792;4.352;2023-08-12T09:35:40;3.45;;;1.90;;
22468;SDS011;11401;50.792;4.352;2023-08-12T09:38:12;3.20;;;2.03;;
22468;SDS011;11401;50.792;4.352;2023-08-12T09:40:39;5.45;;;2.05;;
22468;SDS011;11401;50.792;4.352;2023-08-12T09:43:07;3.55;;;1.80;;
22468;SDS011;11401;50.792;4.352;2023-08-12T09:45:36;4.57;;;2.47;;
22468;SDS011;11401;50.792;4.352;2023-08-12T09:48:03;4.97;;;2.03;;
22468;SDS011;11401;50.792;4.352;2023-08-12T09:50:31;3.17;;;1.95;;
22468;SDS011;11401;50.792;4.352;2023-08-12T09:52:58;5.68;;;2.50;;
22468;SDS011;11401;50.792;4.352;2023-08-12T09:55:26;7.47;;;2.13;;
22468;SDS011;11401;50.792;4.352;2023-08-12T09:57:54;4.57;;;2.20;;
22468;SDS011;11401;50.792;4.352;2023-08-12T10:00:22;4.25;;;1.95;;
22468;SDS011;11401;50.792;4.352;2023-08-12T10:02:50;2.80;;;2.00;;
22468;SDS011;11401;50.792;4.352;2023-08-12T10:05:19;4.68;;;2.30;;
22468;SDS011;11401;50.792;4.352;2023-08-12T10:07:50;6.50;;;2.15;;
22468;SDS011;11401;50.792;4.352;2023-08-12T10:10:18;3.42;;;2.53;;
22468;SDS011;11401;50.792;4.352;2023-08-12T10:12:46;3.83;;;2.30;;
22468;SDS011;11401;50.792;4.352;2023-08-12T10:15:14;4.22;;;2.03;;
22468;SDS011;11401;50.792;4.352;2023-08-12T10:17:41;3.63;;;1.88;;
22468;SDS011;11401;50.792;4.352;2023-08-12T10:20:14;7.85;;;2.47;;
22468;SDS011;11401;50.792;4.352;2023-08-12T10:22:46;2.53;;;1.77;;
22468;SDS011;11401;50.792;4.352;2023-08-12T10:25:13;4.57;;;2.15;;
22468;SDS011;11401;50.792;4.352;2023-08-12T10:27:41;5.35;;;2.05;;
22468;SDS011;11401;50.792;4.352;2023-08-12T10:30:08;4.93;;;1.80;;
22468;SDS011;11401;50.792;4.352;2023-08-12T10:32:36;2.88;;;2.10;;
22468;SDS011;11401;50.792;4.352;2023-08-12T10:35:04;6.22;;;2.15;;
22468;SDS011;11401;50.792;4.352;2023-08-12T10:37:32;1.60;;;1.50;;
22468;SDS011;11401;50.792;4.352;2023-08-12T10:40:03;3.63;;;1.80;;
22468;SDS011;11401;50.792;4.352;2023-08-12T10:42:44;5.25;;;2.70;;
22468;SDS011;11401;50.792;4.352;2023-08-12T10:45:11;3.33;;;1.73;;
22468;SDS011;11401;50.792;4.352;2023-08-12T10:47:40;3.75;;;1.52;;
22468;SDS011;11401;50.792;4.352;2023-08-12T10:50:20;3.85;;;1.88;;
22468;SDS011;11401;50.792;4.352;2023-08-12T10:52:51;4.35;;;2.10;;
22468;SDS011;11401;50.792;4.352;2023-08-12T10:55:23;3.88;;;1.67;;
22468;SDS011;11401;50.792;4.352;2023-08-12T10:57:54;5.28;;;1.90;;
22468;SDS011;11401;50.792;4.352;2023-08-12T11:02:51;6.22;;;2.15;;
22468;SDS011;11401;50.792;4.352;2023-08-12T11:05:19;5.68;;;2.15;;
22468;SDS011;11401;50.792;4.352;2023-08-12T11:07:47;3.67;;;1.77;;
22468;SDS011;11401;50.792;4.352;2023-08-12T11:10:22;2.38;;;1.55;;
22468;SDS011;11401;50.792;4.352;2023-08-12T11:15:36;3.83;;;2.15;;
22468;SDS011;11401;50.792;4.352;2023-08-12T11:18:13;3.15;;;1.70;;
22468;SDS011;11401;50.792;4.352;2023-08-12T11:20:42;4.05;;;1.90;;
22468;SDS011;11401;50.792;4.352;2023-08-12T11:23:10;3.08;;;1.73;;
22468;SDS011;11401;50.792;4.352;2023-08-12T11:25:38;4.35;;;1.95;;
22468;SDS011;11401;50.792;4.352;2023-08-12T11:28:06;5.88;;;2.05;;
22468;SDS011;11401;50.792;4.352;2023-08-12T11:30:34;3.80;;;1.83;;
22468;SDS011;11401;50.792;4.352;2023-08-12T11:33:02;5.10;;;1.52;;
22468;SDS011;11401;50.792;4.352;2023-08-12T11:35:30;5.15;;;1.65;;
22468;SDS011;11401;50.792;4.352;2023-08-12T11:37:58;2.83;;;1.60;;
22468;SDS011;11401;50.792;4.352;2023-08-12T11:40:26;2.92;;;1.67;;
22468;SDS011;11401;50.792;4.352;2023-08-12T11:42:55;3.13;;;1.85;;
22468;SDS011;11401;50.792;4.352;2023-08-12T11:45:24;4.90;;;1.77;;
22468;SDS011;11401;50.792;4.352;2023-08-12T11:47:52;3.97;;;1.90;;
22468;SDS011;11401;50.792;4.352;2023-08-12T11:50:21;4.85;;;2.13;;
22468;SDS011;11401;50.792;4.352;2023-08-12T11:52:50;3.63;;;1.83;;
22468;SDS011;11401;50.792;4.352;2023-08-12T11:55:18;3.85;;;1.70;;
22468;SDS011;11401;50.792;4.352;2023-08-12T11:57:46;3.70;;;1.75;;
22468;SDS011;11401;50.792;4.352;2023-08-12T12:00:13;3.25;;;2.00;;
22468;SDS011;11401;50.792;4.352;2023-08-12T12:02:46;6.85;;;2.50;;
22468;SDS011;11401;50.792;4.352;2023-08-12T12:05:18;4.85;;;1.75;;
22468;SDS011;11401;50.792;4.352;2023-08-12T12:07:50;3.88;;;2.03;;
22468;SDS011;11401;50.792;4.352;2023-08-12T12:10:29;4.28;;;2.15;;
22468;SDS011;11401;50.792;4.352;2023-08-12T12:13:01;3.03;;;1.52;;
22468;SDS011;11401;50.792;4.352;2023-08-12T12:15:31;2.13;;;1.70;;
22468;SDS011;11401;50.792;4.352;2023-08-12T12:18:08;4.85;;;2.63;;
22468;SDS011;11401;50.792;4.352;2023-08-12T12:20:53;1.60;;;1.50;;
22468;SDS011;11401;50.792;4.352;2023-08-12T12:23:27;3.83;;;2.03;;
22468;SDS011;11401;50.792;4.352;2023-08-12T12:25:58;3.85;;;2.67;;
22468;SDS011;11401;50.792;4.352;2023-08-12T12:28:27;4.90;;;2.13;;
22468;SDS011;11401;50.792;4.352;2023-08-12T12:30:54;5.88;;;3.03;;
22468;SDS011;11401;50.792;4.352;2023-08-12T12:33:21;3.70;;;2.30;;
22468;SDS011;11401;50.792;4.352;2023-08-12T12:35:48;2.45;;;1.63;;
22468;SDS011;11401;50.792;4.352;2023-08-12T12:38:23;3.63;;;2.30;;
22468;SDS011;11401;50.792;4.352;2023-08-12T12:40:50;4.75;;;2.03;;
22468;SDS011;11401;50.792;4.352;2023-08-12T12:43:17;2.33;;;1.95;;
22468;SDS011;11401;50.792;4.352;2023-08-12T12:45:44;5.22;;;2.60;;
22468;SDS011;11401;50.792;4.352;2023-08-12T12:48:14;2.22;;;1.80;;
22468;SDS011;11401;50.792;4.352;2023-08-12T12:50:41;2.03;;;1.60;;
22468;SDS011;11401;50.792;4.352;2023-08-12T12:53:11;2.08;;;1.88;;
22468;SDS011;11401;50.792;4.352;2023-08-12T12:55:40;3.35;;;1.50;;
22468;SDS011;11401;50.792;4.352;2023-08-12T12:58:07;5.38;;;1.63;;
22468;SDS011;11401;50.792;4.352;2023-08-12T13:00:38;2.65;;;1.45;;
22468;SDS011;11401;50.792;4.352;2023-08-12T13:03:05;2.00;;;1.70;;
22468;SDS011;11401;50.792;4.352;2023-08-12T13:05:32;1.92;;;1.73;;
22468;SDS011;11401;50.792;4.352;2023-08-12T13:07:59;2.47;;;1.55;;
22468;SDS011;11401;50.792;4.352;2023-08-12T13:10:26;4.82;;;2.15;;
22468;SDS011;11401;50.792;4.352;2023-08-12T13:12:53;2.15;;;1.95;;
22468;SDS011;11401;50.792;4.352;2023-08-12T13:15:20;3.13;;;1.88;;
22468;SDS011;11401;50.792;4.352;2023-08-12T13:17:47;2.38;;;1.85;;
22468;SDS011;11401;50.792;4.352;2023-08-12T13:20:14;2.78;;;1.70;;
22468;SDS011;11401;50.792;4.352;2023-08-12T13:22:41;3.65;;;1.77;;
22468;SDS011;11401;50.792;4.352;2023-08-12T13:25:08;3.67;;;1.80;;
22468;SDS011;11401;50.792;4.352;2023-08-12T13:27:35;4.82;;;1.83;;
22468;SDS011;11401;50.792;4.352;2023-08-12T13:30:02;3.08;;;1.52;;
22468;SDS011;11401;50.792;4.352;2023-08-12T13:32:30;1.70;;;1.60;;
22468;SDS011;11401;50.792;4.352;2023-08-12T13:34:57;3.53;;;1.80;;
22468;SDS011;11401;50.792;4.352;2023-08-12T13:37:24;1.70;;;1.60;;
22468;SDS011;11401;50.792;4.352;2023-08-12T13:39:51;3.35;;;1.67;;
22468;SDS011;11401;50.792;4.352;2023-08-12T13:42:18;2.50;;;1.80;;
22468;SDS011;11401;50.792;4.352;2023-08-12T13:44:46;2.10;;;1.90;;
22468;SDS011;11401;50.792;4.352;2023-08-12T13:47:13;3.58;;;2.00;;
22468;SDS011;11401;50.792;4.352;2023-08-12T13:49:40;2.25;;;2.08;;
22468;SDS011;11401;50.792;4.352;2023-08-12T13:52:07;2.08;;;1.50;;
22468;SDS011;11401;50.792;4.352;2023-08-12T13:54:34;3.63;;;1.88;;
22468;SDS011;11401;50.792;4.352;2023-08-12T13:57:02;2.88;;;1.85;;
22468;SDS011;11401;50.792;4.352;2023-08-12T13:59:30;3.05;;;1.52;;
22468;SDS011;11401;50.792;4.352;2023-08-12T14:01:57;2.38;;;1.80;;
22468;SDS011;11401;50.792;4.352;2023-08-12T14:04:24;4.22;;;2.05;;
22468;SDS011;11401;50.792;4.352;2023-08-12T14:06:51;2.30;;;1.83;;
22468;SDS011;11401;50.792;4.352;2023-08-12T14:09:18;2.10;;;1.90;;
22468;SDS011;11401;50.792;4.352;2023-08-12T14:11:46;3.53;;;1.92;;
22468;SDS011;11401;50.792;4.352;2023-08-12T14:14:13;2.25;;;1.80;;
22468;SDS011;11401;50.792;4.352;2023-08-12T14:16:40;1.90;;;1.60;;
22468;SDS011;11401;50.792;4.352;2023-08-12T14:19:08;1.65;;;1.45;;
22468;SDS011;11401;50.792;4.352;2023-08-12T14:21:35;3.13;;;1.85;;
22468;SDS011;11401;50.792;4.352;2023-08-12T14:24:02;3.17;;;1.88;;
22468;SDS011;11401;50.792;4.352;2023-08-12T14:26:29;4.18;;;1.83;;
22468;SDS011;11401;50.792;4.352;2023-08-12T14:28:56;1.48;;;1.38;;
22468;SDS011;11401;50.792;4.352;2023-08-12T14:31:23;2.17;;;1.42;;
22468;SDS011;11401;50.792;4.352;2023-08-12T14:33:51;2.90;;;1.50;;
22468;SDS011;11401;50.792;4.352;2023-08-12T14:36:17;1.35;;;1.23;;
22468;SDS011;11401;50.792;4.352;2023-08-12T14:38:45;4.90;;;1.88;;
22468;SDS011;11401;50.792;4.352;2023-08-12T14:41:12;2.67;;;1.40;;
22468;SDS011;11401;50.792;4.352;2023-08-12T14:43:39;1.75;;;1.52;;
22468;SDS011;11401;50.792;4.352;2023-08-12T14:46:06;3.10;;;1.80;;
22468;SDS011;11401;50.792;4.352;2023-08-12T14:48:33;2.22;;;1.50;;
22468;SDS011;11401;50.792;4.352;2023-08-12T14:51:00;2.15;;;1.30;;
22468;SDS011;11401;50.792;4.352;2023-08-12T14:53:27;3.47;;;1.77;;
22468;SDS011;11401;50.792;4.352;2023-08-12T14:55:54;5.50;;;2.08;;
22468;SDS011;11401;50.792;4.352;2023-08-12T14:58:21;3.15;;;1.60;;
22468;SDS011;11401;50.792;4.352;2023-08-12T15:00:48;4.63;;;1.70;;
22468;SDS011;11401;50.792;4.352;2023-08-12T15:03:15;2.95;;;2.00;;
22468;SDS011;11401;50.792;4.352;2023-08-12T15:05:43;2.20;;;1.73;;
22468;SDS011;11401;50.792;4.352;2023-08-12T15:08:10;2.05;;;1.50;;